PWSweather.com
Personal Weather Stations
Station Observations
THAIWX
Pa Daet, Chiang MaiTH 50100

Pa DaetChiang MaiTH 50100

Lat: 18.766158, Lon: 98.97553

Elevation: 1007

Station Type: LaCrosse WS2315

http://www.ThaiWx.yolasite.com/

High Low Average
Temperature 85.1°F29.5°C 74.5°F23.6°C 78.4°F25.8°C
Dew Point 79.2°F26.2°C 73.2°F22.9°C 75.8°F24.3°C
Winds 1.3 mph 2.1 kmh Calm Calm Calm SECalm SE
Wind Gusts 1.3 mph2.1 kmh -- --
Humidity 98% 81% 92%
Pressure 29.73 in1006.8 mb 29.60 in1002.4 mb -
Precipitation 0.29 in7.4 mm - -
Hour Temp Dew Point Humidity Winds Wind Gusts Pressure Precip Precip Rate Daily Precip Total
12:05 AM 79.5°F26.4°C 75.0°F23.9°C 86% 0.4 mph SW0.6 kmh SW 1.3 mph2.1 kmh 29.72 in1006.4 mb 0.00 in0.0 mm 0.00 in0.0 mm 0.00 in0.0 mm
12:10 AM 79.3°F26.3°C 74.8°F23.8°C 86% Calm Calm 1.3 mph2.1 kmh 29.72 in1006.4 mb 0.00 in0.0 mm 0.00 in0.0 mm 0.00 in0.0 mm
12:16 AM 79.3°F26.3°C 75.1°F23.9°C 87% 1.1 mph SW1.8 kmh SW 1.1 mph1.8 kmh 29.72 in1006.4 mb 0.00 in0.0 mm 0.00 in0.0 mm 0.00 in0.0 mm
12:20 AM 79.2°F26.2°C 75.0°F23.9°C 87% Calm Calm 1.1 mph1.8 kmh 29.71 in1006.1 mb 0.00 in0.0 mm 0.00 in0.0 mm 0.00 in0.0 mm
12:25 AM 79.0°F26.1°C 74.8°F23.8°C 87% 0.9 mph SW1.4 kmh SW 1.1 mph1.8 kmh 29.71 in1006.1 mb 0.00 in0.0 mm 0.00 in0.0 mm 0.00 in0.0 mm
12:31 AM 79.0°F26.1°C 75.2°F24.0°C 88% 0.9 mph WSW1.4 kmh WSW 0.9 mph1.4 kmh 29.71 in1006.1 mb 0.00 in0.0 mm 0.00 in0.0 mm 0.00 in0.0 mm
12:35 AM 79.0°F26.1°C 75.2°F24.0°C 88% 1.1 mph SW1.8 kmh SW 1.1 mph1.8 kmh 29.70 in1005.8 mb 0.00 in0.0 mm 0.00 in0.0 mm 0.00 in0.0 mm
12:40 AM 78.8°F26.0°C 75.0°F23.9°C 88% Calm Calm 1.1 mph1.8 kmh 29.71 in1006.1 mb 0.00 in0.0 mm 0.00 in0.0 mm 0.00 in0.0 mm
12:46 AM 79.0°F26.1°C 75.2°F24.0°C 88% Calm Calm -- 29.71 in1006.1 mb 0.00 in0.0 mm 0.00 in0.0 mm 0.00 in0.0 mm
12:50 AM 78.8°F26.0°C 75.0°F23.9°C 88% Calm Calm -- 29.70 in1005.8 mb 0.00 in0.0 mm 0.00 in0.0 mm 0.00 in0.0 mm
12:57 AM 78.6°F25.9°C 75.0°F23.9°C 88% Calm Calm -- 29.70 in1005.8 mb 0.00 in0.0 mm 0.00 in0.0 mm 0.00 in0.0 mm
01:01 AM 78.6°F25.9°C 74.8°F23.8°C 88% Calm Calm -- 29.70 in1005.8 mb 0.00 in0.0 mm 0.00 in0.0 mm 0.00 in0.0 mm
01:05 AM 78.6°F25.9°C 75.2°F24.0°C 89% Calm Calm -- 29.70 in1005.8 mb 0.00 in0.0 mm 0.00 in0.0 mm 0.00 in0.0 mm
01:12 AM 78.4°F25.8°C 75.0°F23.9°C 89% Calm Calm -- 29.70 in1005.8 mb 0.00 in0.0 mm 0.00 in0.0 mm 0.00 in0.0 mm
01:16 AM 78.4°F25.8°C 75.0°F23.9°C 89% Calm Calm -- 29.70 in1005.8 mb 0.00 in0.0 mm 0.00 in0.0 mm 0.00 in0.0 mm
01:20 AM 78.4°F25.8°C 75.0°F23.9°C 89% Calm Calm -- 29.70 in1005.8 mb 0.00 in0.0 mm 0.00 in0.0 mm 0.00 in0.0 mm
01:27 AM 78.4°F25.8°C 75.4°F24.1°C 90% Calm Calm -- 29.69 in1005.4 mb 0.00 in0.0 mm 0.00 in0.0 mm 0.00 in0.0 mm
01:31 AM 78.4°F25.8°C 75.0°F23.9°C 89% Calm Calm -- 29.69 in1005.4 mb 0.00 in0.0 mm 0.00 in0.0 mm 0.00 in0.0 mm
01:38 AM 78.6°F25.9°C 75.6°F24.2°C 90% Calm Calm -- 29.68 in1005.1 mb 0.00 in0.0 mm 0.00 in0.0 mm 0.00 in0.0 mm
01:42 AM 78.4°F25.8°C 75.4°F24.1°C 90% Calm Calm -- 29.67 in1004.7 mb 0.00 in0.0 mm 0.00 in0.0 mm 0.00 in0.0 mm
01:46 AM 78.4°F25.8°C 75.4°F24.1°C 90% Calm Calm -- 29.67 in1004.7 mb 0.00 in0.0 mm 0.00 in0.0 mm 0.00 in0.0 mm
01:53 AM 78.4°F25.8°C 75.4°F24.1°C 90% Calm Calm -- 29.67 in1004.7 mb 0.00 in0.0 mm 0.00 in0.0 mm 0.00 in0.0 mm
01:57 AM 78.4°F25.8°C 75.4°F24.1°C 90% Calm Calm -- 29.67 in1004.7 mb 0.00 in0.0 mm 0.00 in0.0 mm 0.00 in0.0 mm
02:01 AM 78.4°F25.8°C 75.4°F24.1°C 90% Calm Calm -- 29.67 in1004.7 mb 0.00 in0.0 mm 0.00 in0.0 mm 0.00 in0.0 mm
02:08 AM 78.3°F25.7°C 75.2°F24.0°C 90% 0.2 mph SE0.3 kmh SE 0.2 mph0.3 kmh 29.67 in1004.7 mb 0.00 in0.0 mm 0.00 in0.0 mm 0.00 in0.0 mm
02:12 AM 78.1°F25.6°C 75.0°F23.9°C 90% Calm Calm 0.9 mph1.4 kmh 29.67 in1004.7 mb 0.00 in0.0 mm 0.00 in0.0 mm 0.00 in0.0 mm
02:16 AM 78.1°F25.6°C 75.3°F24.1°C 91% Calm Calm 0.9 mph1.4 kmh 29.67 in1004.7 mb 0.00 in0.0 mm 0.00 in0.0 mm 0.00 in0.0 mm
02:22 AM 78.1°F25.6°C 75.3°F24.1°C 91% Calm Calm -- 29.67 in1004.7 mb 0.00 in0.0 mm 0.00 in0.0 mm 0.00 in0.0 mm
02:27 AM 77.9°F25.5°C 75.1°F23.9°C 91% Calm Calm -- 29.67 in1004.7 mb 0.00 in0.0 mm 0.00 in0.0 mm 0.00 in0.0 mm
02:31 AM 77.9°F25.5°C 75.1°F23.9°C 91% Calm Calm -- 29.66 in1004.4 mb 0.00 in0.0 mm 0.00 in0.0 mm 0.00 in0.0 mm
02:38 AM 77.7°F25.4°C 75.0°F23.9°C 91% Calm Calm -- 29.66 in1004.4 mb 0.00 in0.0 mm 0.00 in0.0 mm 0.00 in0.0 mm
02:42 AM 77.7°F25.4°C 75.0°F23.9°C 91% Calm Calm -- 29.66 in1004.4 mb 0.00 in0.0 mm 0.00 in0.0 mm 0.00 in0.0 mm
02:48 AM 77.7°F25.4°C 75.0°F23.9°C 91% Calm Calm -- 29.66 in1004.4 mb 0.00 in0.0 mm 0.00 in0.0 mm 0.00 in0.0 mm
02:52 AM 77.5°F25.3°C 74.8°F23.8°C 91% Calm Calm -- 29.66 in1004.4 mb 0.00 in0.0 mm 0.00 in0.0 mm 0.00 in0.0 mm
02:57 AM 77.5°F25.3°C 74.8°F23.8°C 91% Calm Calm -- 29.66 in1004.4 mb 0.00 in0.0 mm 0.00 in0.0 mm 0.00 in0.0 mm
03:03 AM 77.5°F25.3°C 75.1°F23.9°C 92% Calm Calm -- 29.66 in1004.4 mb 0.00 in0.0 mm 0.00 in0.0 mm 0.00 in0.0 mm
03:08 AM 77.5°F25.3°C 75.1°F23.9°C 92% Calm Calm -- 29.66 in1004.4 mb 0.00 in0.0 mm 0.00 in0.0 mm 0.00 in0.0 mm
03:12 AM 77.5°F25.3°C 75.1°F23.9°C 92% Calm Calm -- 29.65 in1004.1 mb 0.00 in0.0 mm 0.00 in0.0 mm 0.00 in0.0 mm
03:18 AM 77.4°F25.2°C 75.1°F23.9°C 92% Calm Calm -- 29.66 in1004.4 mb 0.00 in0.0 mm 0.00 in0.0 mm 0.00 in0.0 mm
03:22 AM 77.4°F25.2°C 74.9°F23.8°C 92% Calm Calm -- 29.65 in1004.1 mb 0.00 in0.0 mm 0.00 in0.0 mm 0.00 in0.0 mm
03:29 AM 77.4°F25.2°C 74.9°F23.8°C 92% Calm Calm -- 29.66 in1004.4 mb 0.00 in0.0 mm 0.00 in0.0 mm 0.00 in0.0 mm
03:33 AM 77.4°F25.2°C 74.9°F23.8°C 92% Calm Calm -- 29.66 in1004.4 mb 0.00 in0.0 mm 0.00 in0.0 mm 0.00 in0.0 mm
03:38 AM 77.4°F25.2°C 74.9°F23.8°C 92% Calm Calm -- 29.66 in1004.4 mb 0.00 in0.0 mm 0.00 in0.0 mm 0.00 in0.0 mm
03:44 AM 77.4°F25.2°C 74.9°F23.8°C 92% Calm Calm -- 29.66 in1004.4 mb 0.00 in0.0 mm 0.00 in0.0 mm 0.00 in0.0 mm
03:48 AM 77.4°F25.2°C 74.9°F23.8°C 92% Calm Calm -- 29.67 in1004.7 mb 0.00 in0.0 mm 0.00 in0.0 mm 0.00 in0.0 mm
03:52 AM 77.4°F25.2°C 74.9°F23.8°C 92% Calm Calm -- 29.67 in1004.7 mb 0.00 in0.0 mm 0.00 in0.0 mm 0.00 in0.0 mm
03:59 AM 77.4°F25.2°C 74.9°F23.8°C 92% Calm Calm -- 29.67 in1004.7 mb 0.00 in0.0 mm 0.00 in0.0 mm 0.00 in0.0 mm
04:03 AM 77.5°F25.3°C 75.1°F23.9°C 92% Calm Calm -- 29.67 in1004.7 mb 0.00 in0.0 mm 0.00 in0.0 mm 0.00 in0.0 mm
04:10 AM 77.5°F25.3°C 75.1°F23.9°C 92% Calm Calm -- 29.66 in1004.4 mb 0.00 in0.0 mm 0.00 in0.0 mm 0.00 in0.0 mm
04:14 AM 77.5°F25.3°C 75.1°F23.9°C 92% Calm Calm -- 29.67 in1004.7 mb 0.00 in0.0 mm 0.00 in0.0 mm 0.00 in0.0 mm
04:20 AM 77.5°F25.3°C 75.1°F23.9°C 92% Calm Calm -- 29.67 in1004.7 mb 0.00 in0.0 mm 0.00 in0.0 mm 0.00 in0.0 mm
04:25 AM 77.5°F25.3°C 75.1°F23.9°C 92% Calm Calm -- 29.67 in1004.7 mb 0.00 in0.0 mm 0.00 in0.0 mm 0.00 in0.0 mm
04:31 AM 77.5°F25.3°C 75.1°F23.9°C 92% Calm Calm -- 29.67 in1004.7 mb 0.00 in0.0 mm 0.00 in0.0 mm 0.00 in0.0 mm
04:35 AM 77.7°F25.4°C 75.3°F24.1°C 92% Calm Calm -- 29.67 in1004.7 mb 0.00 in0.0 mm 0.00 in0.0 mm 0.00 in0.0 mm
04:42 AM 77.7°F25.4°C 75.3°F24.1°C 92% Calm Calm -- 29.67 in1004.7 mb 0.00 in0.0 mm 0.00 in0.0 mm 0.00 in0.0 mm
04:46 AM 77.5°F25.3°C 75.1°F23.9°C 92% Calm Calm -- 29.67 in1004.7 mb 0.00 in0.0 mm 0.00 in0.0 mm 0.00 in0.0 mm
04:50 AM 77.5°F25.3°C 75.1°F23.9°C 92% Calm Calm -- 29.67 in1004.7 mb 0.00 in0.0 mm 0.00 in0.0 mm 0.00 in0.0 mm
04:57 AM 77.5°F25.3°C 75.1°F23.9°C 92% Calm Calm -- 29.67 in1004.7 mb 0.00 in0.0 mm 0.00 in0.0 mm 0.00 in0.0 mm
05:01 AM 77.5°F25.3°C 75.1°F23.9°C 92% Calm Calm -- 29.67 in1004.7 mb 0.00 in0.0 mm 0.00 in0.0 mm 0.00 in0.0 mm
05:05 AM 77.5°F25.3°C 75.4°F24.1°C 93% Calm Calm -- 29.67 in1004.7 mb 0.00 in0.0 mm 0.00 in0.0 mm 0.00 in0.0 mm
05:12 AM 77.5°F25.3°C 75.4°F24.1°C 93% Calm Calm -- 29.67 in1004.7 mb 0.00 in0.0 mm 0.00 in0.0 mm 0.00 in0.0 mm
05:16 AM 77.5°F25.3°C 75.4°F24.1°C 93% Calm Calm -- 29.67 in1004.7 mb 0.00 in0.0 mm 0.00 in0.0 mm 0.00 in0.0 mm
05:20 AM 77.4°F25.2°C 75.2°F24.0°C 93% Calm Calm -- 29.67 in1004.7 mb 0.00 in0.0 mm 0.00 in0.0 mm 0.00 in0.0 mm
05:27 AM 77.4°F25.2°C 75.2°F24.0°C 93% Calm Calm -- 29.67 in1004.7 mb 0.00 in0.0 mm 0.00 in0.0 mm 0.00 in0.0 mm
05:31 AM 77.4°F25.2°C 75.2°F24.0°C 93% Calm Calm -- 29.67 in1004.7 mb 0.00 in0.0 mm 0.00 in0.0 mm 0.00 in0.0 mm
05:35 AM 77.4°F25.2°C 75.2°F24.0°C 93% Calm Calm -- 29.67 in1004.7 mb 0.00 in0.0 mm 0.00 in0.0 mm 0.00 in0.0 mm
05:42 AM 77.2°F25.1°C 75.0°F23.9°C 93% Calm Calm -- 29.68 in1005.1 mb 0.00 in0.0 mm 0.00 in0.0 mm 0.00 in0.0 mm
05:46 AM 77.2°F25.1°C 75.0°F23.9°C 93% Calm Calm -- 29.68 in1005.1 mb 0.00 in0.0 mm 0.00 in0.0 mm 0.00 in0.0 mm
05:52 AM 77.2°F25.1°C 75.3°F24.1°C 94% Calm Calm -- 29.68 in1005.1 mb 0.00 in0.0 mm 0.00 in0.0 mm 0.00 in0.0 mm
05:57 AM 77.2°F25.1°C 75.3°F24.1°C 94% Calm Calm -- 29.68 in1005.1 mb 0.00 in0.0 mm 0.00 in0.0 mm 0.00 in0.0 mm
06:01 AM 77.2°F25.1°C 75.3°F24.1°C 94% Calm Calm -- 29.68 in1005.1 mb 0.00 in0.0 mm 0.00 in0.0 mm 0.00 in0.0 mm
06:08 AM 77.2°F25.1°C 75.3°F24.1°C 94% Calm Calm -- 29.68 in1005.1 mb 0.00 in0.0 mm 0.00 in0.0 mm 0.00 in0.0 mm
06:12 AM 77.2°F25.1°C 75.3°F24.1°C 94% Calm Calm 1.3 mph2.1 kmh 29.69 in1005.4 mb 0.00 in0.0 mm 0.00 in0.0 mm 0.00 in0.0 mm
06:16 AM 77.2°F25.1°C 75.3°F24.1°C 94% Calm Calm 1.3 mph2.1 kmh 29.69 in1005.4 mb 0.00 in0.0 mm 0.00 in0.0 mm 0.00 in0.0 mm
06:22 AM 77.2°F25.1°C 75.3°F24.1°C 94% Calm Calm -- 29.69 in1005.4 mb 0.00 in0.0 mm 0.00 in0.0 mm 0.00 in0.0 mm
06:27 AM 77.2°F25.1°C 75.3°F24.1°C 94% Calm Calm -- 29.69 in1005.4 mb 0.00 in0.0 mm 0.00 in0.0 mm 0.00 in0.0 mm
06:31 AM 77.2°F25.1°C 75.3°F24.1°C 94% Calm Calm -- 29.69 in1005.4 mb 0.00 in0.0 mm 0.00 in0.0 mm 0.00 in0.0 mm
06:37 AM 77.2°F25.1°C 75.3°F24.1°C 94% Calm Calm -- 29.70 in1005.8 mb 0.00 in0.0 mm 0.00 in0.0 mm 0.00 in0.0 mm
06:42 AM 77.2°F25.1°C 75.3°F24.1°C 94% Calm Calm -- 29.70 in1005.8 mb 0.00 in0.0 mm 0.00 in0.0 mm 0.00 in0.0 mm
06:48 AM 77.2°F25.1°C 75.3°F24.1°C 94% Calm Calm -- 29.69 in1005.4 mb 0.00 in0.0 mm 0.00 in0.0 mm 0.00 in0.0 mm
06:52 AM 77.2°F25.1°C 75.3°F24.1°C 94% Calm Calm -- 29.69 in1005.4 mb 0.00 in0.0 mm 0.00 in0.0 mm 0.00 in0.0 mm
06:59 AM 77.4°F25.2°C 75.5°F24.2°C 94% Calm Calm -- 29.70 in1005.8 mb 0.00 in0.0 mm 0.00 in0.0 mm 0.00 in0.0 mm
07:03 AM 77.4°F25.2°C 75.5°F24.2°C 94% Calm Calm -- 29.70 in1005.8 mb 0.00 in0.0 mm 0.00 in0.0 mm 0.00 in0.0 mm
07:07 AM 77.4°F25.2°C 75.5°F24.2°C 94% Calm Calm -- 29.70 in1005.8 mb 0.00 in0.0 mm 0.00 in0.0 mm 0.00 in0.0 mm
07:14 AM 77.5°F25.3°C 75.7°F24.3°C 94% Calm Calm -- 29.70 in1005.8 mb 0.00 in0.0 mm 0.00 in0.0 mm 0.00 in0.0 mm
07:18 AM 77.5°F25.3°C 75.7°F24.3°C 94% Calm Calm -- 29.70 in1005.8 mb 0.00 in0.0 mm 0.00 in0.0 mm 0.00 in0.0 mm
07:22 AM 77.5°F25.3°C 75.7°F24.3°C 94% Calm Calm -- 29.70 in1005.8 mb 0.00 in0.0 mm 0.00 in0.0 mm 0.00 in0.0 mm
07:29 AM 77.7°F25.4°C 75.9°F24.4°C 94% Calm Calm -- 29.70 in1005.8 mb 0.00 in0.0 mm 0.00 in0.0 mm 0.00 in0.0 mm
07:33 AM 77.7°F25.4°C 75.9°F24.4°C 94% Calm Calm -- 29.70 in1005.8 mb 0.00 in0.0 mm 0.00 in0.0 mm 0.00 in0.0 mm
07:39 AM 77.7°F25.4°C 75.6°F24.2°C 93% Calm Calm -- 29.70 in1005.8 mb 0.00 in0.0 mm 0.00 in0.0 mm 0.00 in0.0 mm
07:44 AM 77.9°F25.5°C 75.8°F24.3°C 93% Calm Calm -- 29.70 in1005.8 mb 0.00 in0.0 mm 0.00 in0.0 mm 0.00 in0.0 mm
07:48 AM 77.9°F25.5°C 75.8°F24.3°C 93% Calm Calm -- 29.70 in1005.8 mb 0.00 in0.0 mm 0.00 in0.0 mm 0.00 in0.0 mm
07:54 AM 77.9°F25.5°C 75.8°F24.3°C 93% Calm Calm -- 29.70 in1005.8 mb 0.00 in0.0 mm 0.00 in0.0 mm 0.00 in0.0 mm
07:59 AM 78.1°F25.6°C 75.9°F24.4°C 93% Calm Calm -- 29.70 in1005.8 mb 0.00 in0.0 mm 0.00 in0.0 mm 0.00 in0.0 mm
08:05 AM 78.1°F25.6°C 75.6°F24.2°C 92% Calm Calm -- 29.70 in1005.8 mb 0.00 in0.0 mm 0.00 in0.0 mm 0.00 in0.0 mm
08:09 AM 78.4°F25.8°C 76.0°F24.4°C 92% Calm Calm -- 29.70 in1005.8 mb 0.00 in0.0 mm 0.00 in0.0 mm 0.00 in0.0 mm
08:14 AM 78.4°F25.8°C 76.0°F24.4°C 92% Calm Calm -- 29.70 in1005.8 mb 0.00 in0.0 mm 0.00 in0.0 mm 0.00 in0.0 mm
08:20 AM 78.6°F25.9°C 76.2°F24.6°C 92% Calm Calm -- 29.71 in1006.1 mb 0.00 in0.0 mm 0.00 in0.0 mm 0.00 in0.0 mm
08:24 AM 78.6°F25.9°C 75.9°F24.4°C 91% Calm Calm -- 29.71 in1006.1 mb 0.00 in0.0 mm 0.00 in0.0 mm 0.00 in0.0 mm
08:31 AM 79.0°F26.1°C 76.5°F24.7°C 92% Calm Calm 0.4 mph0.6 kmh 29.71 in1006.1 mb 0.00 in0.0 mm 0.00 in0.0 mm 0.00 in0.0 mm
08:35 AM 79.2°F26.2°C 76.7°F24.8°C 92% Calm Calm 0.4 mph0.6 kmh 29.71 in1006.1 mb 0.00 in0.0 mm 0.00 in0.0 mm 0.00 in0.0 mm
08:39 AM 79.2°F26.2°C 76.4°F24.7°C 91% Calm Calm -- 29.71 in1006.1 mb 0.00 in0.0 mm 0.00 in0.0 mm 0.00 in0.0 mm
08:46 AM 79.3°F26.3°C 76.5°F24.7°C 91% Calm Calm -- 29.72 in1006.4 mb 0.00 in0.0 mm 0.00 in0.0 mm 0.00 in0.0 mm
08:50 AM 79.3°F26.3°C 76.2°F24.6°C 90% Calm Calm 0.9 mph1.4 kmh 29.72 in1006.4 mb 0.00 in0.0 mm 0.00 in0.0 mm 0.00 in0.0 mm
08:54 AM 79.3°F26.3°C 76.2°F24.6°C 90% 0.7 mph NE1.1 kmh NE 0.9 mph1.4 kmh 29.72 in1006.4 mb 0.00 in0.0 mm 0.00 in0.0 mm 0.00 in0.0 mm
09:01 AM 79.3°F26.3°C 76.5°F24.7°C 91% Calm Calm 0.7 mph1.1 kmh 29.72 in1006.4 mb 0.00 in0.0 mm 0.00 in0.0 mm 0.00 in0.0 mm
09:05 AM 79.2°F26.2°C 76.4°F24.7°C 91% Calm Calm 0.7 mph1.1 kmh 29.72 in1006.4 mb 0.00 in0.0 mm 0.00 in0.0 mm 0.00 in0.0 mm
09:09 AM 79.0°F26.1°C 76.5°F24.7°C 92% Calm Calm -- 29.72 in1006.4 mb 0.00 in0.0 mm 0.00 in0.0 mm 0.00 in0.0 mm
09:16 AM 79.0°F26.1°C 76.5°F24.7°C 92% Calm Calm -- 29.72 in1006.4 mb 0.00 in0.0 mm 0.00 in0.0 mm 0.00 in0.0 mm
09:20 AM 78.8°F26.0°C 76.7°F24.8°C 93% 0.9 mph 1.4 kmh 0.9 mph1.4 kmh 29.72 in1006.4 mb 0.00 in0.0 mm 0.00 in0.0 mm 0.00 in0.0 mm
09:24 AM 78.6°F25.9°C 76.5°F24.7°C 93% Calm Calm 0.9 mph1.4 kmh 29.72 in1006.4 mb 0.00 in0.0 mm 0.00 in0.0 mm 0.00 in0.0 mm
09:31 AM 78.4°F25.8°C 76.3°F24.6°C 93% Calm Calm -- 29.72 in1006.4 mb 0.00 in0.0 mm 0.00 in0.0 mm 0.00 in0.0 mm
09:35 AM 78.4°F25.8°C 76.6°F24.8°C 94% Calm Calm -- 29.72 in1006.4 mb 0.00 in0.0 mm 0.00 in0.0 mm 0.00 in0.0 mm
09:41 AM 78.4°F25.8°C 76.6°F24.8°C 94% 0.4 mph 0.6 kmh 0.4 mph0.6 kmh 29.71 in1006.1 mb 0.00 in0.0 mm 0.00 in0.0 mm 0.00 in0.0 mm
09:46 AM 78.4°F25.8°C 76.6°F24.8°C 94% Calm Calm 0.4 mph0.6 kmh 29.71 in1006.1 mb 0.00 in0.0 mm 0.00 in0.0 mm 0.00 in0.0 mm
09:50 AM 78.4°F25.8°C 76.6°F24.8°C 94% Calm Calm 0.4 mph0.6 kmh 29.71 in1006.1 mb 0.00 in0.0 mm 0.00 in0.0 mm 0.00 in0.0 mm
09:56 AM 78.4°F25.8°C 76.6°F24.8°C 94% Calm Calm -- 29.72 in1006.4 mb 0.00 in0.0 mm 0.00 in0.0 mm 0.00 in0.0 mm
10:01 AM 78.6°F25.9°C 76.8°F24.9°C 94% Calm Calm -- 29.71 in1006.1 mb 0.00 in0.0 mm 0.00 in0.0 mm 0.00 in0.0 mm
10:05 AM 78.6°F25.9°C 76.8°F24.9°C 94% Calm Calm -- 29.72 in1006.4 mb 0.00 in0.0 mm 0.00 in0.0 mm 0.00 in0.0 mm
10:11 AM 78.8°F26.0°C 77.3°F25.2°C 95% Calm Calm -- 29.72 in1006.4 mb 0.00 in0.0 mm 0.00 in0.0 mm 0.00 in0.0 mm
10:16 AM 79.0°F26.1°C 77.1°F25.1°C 94% 0.7 mph 1.1 kmh 0.7 mph1.1 kmh 29.72 in1006.4 mb 0.00 in0.0 mm 0.00 in0.0 mm 0.00 in0.0 mm
10:22 AM 79.0°F26.1°C 77.1°F25.1°C 94% Calm Calm 0.7 mph1.1 kmh 29.72 in1006.4 mb 0.00 in0.0 mm 0.00 in0.0 mm 0.00 in0.0 mm
10:26 AM 79.0°F26.1°C 77.1°F25.1°C 94% Calm Calm -- 29.72 in1006.4 mb 0.00 in0.0 mm 0.00 in0.0 mm 0.00 in0.0 mm
10:31 AM 79.2°F26.2°C 77.3°F25.2°C 94% Calm Calm 0.4 mph0.6 kmh 29.71 in1006.1 mb 0.00 in0.0 mm 0.00 in0.0 mm 0.00 in0.0 mm
10:37 AM 79.3°F26.3°C 77.1°F25.1°C 93% 0.7 mph 1.1 kmh 0.7 mph1.1 kmh 29.71 in1006.1 mb 0.00 in0.0 mm 0.00 in0.0 mm 0.00 in0.0 mm
10:41 AM 79.3°F26.3°C 77.1°F25.1°C 93% Calm Calm 0.7 mph1.1 kmh 29.71 in1006.1 mb 0.00 in0.0 mm 0.00 in0.0 mm 0.00 in0.0 mm
10:48 AM 79.3°F26.3°C 77.1°F25.1°C 93% Calm Calm -- 29.71 in1006.1 mb 0.00 in0.0 mm 0.00 in0.0 mm 0.00 in0.0 mm
10:52 AM 79.5°F26.4°C 77.3°F25.2°C 93% 0.9 mph 1.4 kmh 0.9 mph1.4 kmh 29.71 in1006.1 mb 0.00 in0.0 mm 0.00 in0.0 mm 0.00 in0.0 mm
10:56 AM 79.5°F26.4°C 77.3°F25.2°C 93% Calm Calm 0.9 mph1.4 kmh 29.71 in1006.1 mb 0.00 in0.0 mm 0.00 in0.0 mm 0.00 in0.0 mm
11:03 AM 79.5°F26.4°C 77.3°F25.2°C 93% Calm Calm 0.4 mph0.6 kmh 29.70 in1005.8 mb 0.00 in0.0 mm 0.00 in0.0 mm 0.00 in0.0 mm
11:09 AM 79.7°F26.5°C 77.5°F25.3°C 93% Calm Calm -- 29.70 in1005.8 mb 0.00 in0.0 mm 0.00 in0.0 mm 0.00 in0.0 mm
11:14 AM 79.9°F26.6°C 77.6°F25.3°C 93% 0.9 mph NNE1.4 kmh NNE 0.9 mph1.4 kmh 29.70 in1005.8 mb 0.00 in0.0 mm 0.00 in0.0 mm 0.00 in0.0 mm
11:18 AM 79.9°F26.6°C 77.6°F25.3°C 93% Calm Calm 0.9 mph1.4 kmh 29.70 in1005.8 mb 0.00 in0.0 mm 0.00 in0.0 mm 0.00 in0.0 mm
11:24 AM 79.9°F26.6°C 77.3°F25.2°C 92% 0.4 mph ENE0.6 kmh ENE 1.3 mph2.1 kmh 29.70 in1005.8 mb 0.00 in0.0 mm 0.00 in0.0 mm 0.00 in0.0 mm
11:29 AM 80.1°F26.7°C 77.5°F25.3°C 92% Calm Calm 1.3 mph2.1 kmh 29.70 in1005.8 mb 0.00 in0.0 mm 0.00 in0.0 mm 0.00 in0.0 mm
11:35 AM 80.2°F26.8°C 77.3°F25.2°C 91% Calm Calm -- 29.69 in1005.4 mb 0.00 in0.0 mm 0.00 in0.0 mm 0.00 in0.0 mm
11:39 AM 80.2°F26.8°C 77.3°F25.2°C 91% Calm Calm -- 29.69 in1005.4 mb 0.00 in0.0 mm 0.00 in0.0 mm 0.00 in0.0 mm
11:44 AM 80.4°F26.9°C 77.5°F25.3°C 91% Calm Calm -- 29.69 in1005.4 mb 0.00 in0.0 mm 0.00 in0.0 mm 0.00 in0.0 mm
11:50 AM 80.4°F26.9°C 77.2°F25.1°C 90% 0.7 mph 1.1 kmh 0.7 mph1.1 kmh 29.69 in1005.4 mb 0.00 in0.0 mm 0.00 in0.0 mm 0.00 in0.0 mm
11:54 AM 80.4°F26.9°C 76.8°F24.9°C 89% Calm Calm 0.7 mph1.1 kmh 29.69 in1005.4 mb 0.00 in0.0 mm 0.00 in0.0 mm 0.00 in0.0 mm
12:01 PM 80.6°F27.0°C 77.0°F25.0°C 89% 0.4 mph ENE0.6 kmh ENE 0.7 mph1.1 kmh 29.69 in1005.4 mb 0.00 in0.0 mm 0.00 in0.0 mm 0.00 in0.0 mm
12:05 PM 80.8°F27.1°C 77.2°F25.1°C 89% 0.7 mph ENE1.1 kmh ENE 0.7 mph1.1 kmh 29.68 in1005.1 mb 0.00 in0.0 mm 0.00 in0.0 mm 0.00 in0.0 mm
12:09 PM 81.0°F27.2°C 77.0°F25.0°C 88% Calm Calm 0.7 mph1.1 kmh 29.68 in1005.1 mb 0.00 in0.0 mm 0.00 in0.0 mm 0.00 in0.0 mm
12:16 PM 81.1°F27.3°C 76.9°F24.9°C 87% Calm Calm 0.4 mph0.6 kmh 29.68 in1005.1 mb 0.00 in0.0 mm 0.00 in0.0 mm 0.00 in0.0 mm
12:20 PM 81.3°F27.4°C 77.1°F25.1°C 87% 0.4 mph NE0.6 kmh NE 0.4 mph0.6 kmh 29.68 in1005.1 mb 0.00 in0.0 mm 0.00 in0.0 mm 0.00 in0.0 mm
12:24 PM 81.7°F27.6°C 77.4°F25.2°C 87% 0.2 mph NE0.3 kmh NE 0.4 mph0.6 kmh 29.68 in1005.1 mb 0.00 in0.0 mm 0.00 in0.0 mm 0.00 in0.0 mm
12:31 PM 81.9°F27.7°C 77.3°F25.2°C 86% Calm Calm 0.2 mph0.3 kmh 29.67 in1004.7 mb 0.00 in0.0 mm 0.00 in0.0 mm 0.00 in0.0 mm
12:35 PM 82.2°F27.9°C 78.0°F25.6°C 87% Calm Calm 0.2 mph0.3 kmh 29.67 in1004.7 mb 0.00 in0.0 mm 0.00 in0.0 mm 0.00 in0.0 mm
12:39 PM 82.6°F28.1°C 78.0°F25.6°C 86% Calm Calm -- 29.67 in1004.7 mb 0.00 in0.0 mm 0.00 in0.0 mm 0.00 in0.0 mm
12:46 PM 83.1°F28.4°C 78.5°F25.8°C 86% Calm Calm -- 29.67 in1004.7 mb 0.00 in0.0 mm 0.00 in0.0 mm 0.00 in0.0 mm
12:50 PM 83.1°F28.4°C 78.5°F25.8°C 86% Calm Calm -- 29.66 in1004.4 mb 0.00 in0.0 mm 0.00 in0.0 mm 0.00 in0.0 mm
12:56 PM 83.7°F28.7°C 79.0°F26.1°C 86% 0.9 mph 1.4 kmh 0.9 mph1.4 kmh 29.66 in1004.4 mb 0.00 in0.0 mm 0.00 in0.0 mm 0.00 in0.0 mm
01:01 PM 83.8°F28.8°C 78.5°F25.8°C 84% Calm Calm 0.9 mph1.4 kmh 29.66 in1004.4 mb 0.00 in0.0 mm 0.00 in0.0 mm 0.00 in0.0 mm
01:05 PM 84.0°F28.9°C 78.6°F25.9°C 84% Calm Calm 0.9 mph1.4 kmh 29.66 in1004.4 mb 0.00 in0.0 mm 0.00 in0.0 mm 0.00 in0.0 mm
01:11 PM 84.0°F28.9°C 78.6°F25.9°C 84% Calm Calm -- 29.66 in1004.4 mb 0.00 in0.0 mm 0.00 in0.0 mm 0.00 in0.0 mm
01:16 PM 84.0°F28.9°C 78.3°F25.7°C 83% Calm Calm -- 29.66 in1004.4 mb 0.00 in0.0 mm 0.00 in0.0 mm 0.00 in0.0 mm
01:22 PM 84.2°F29.0°C 78.4°F25.8°C 83% Calm Calm -- 29.66 in1004.4 mb 0.00 in0.0 mm 0.00 in0.0 mm 0.00 in0.0 mm
01:26 PM 84.2°F29.0°C 78.4°F25.8°C 83% Calm Calm 0.4 mph0.6 kmh 29.66 in1004.4 mb 0.00 in0.0 mm 0.00 in0.0 mm 0.00 in0.0 mm
01:33 PM 84.2°F29.0°C 78.4°F25.8°C 83% 0.7 mph NNE1.1 kmh NNE 0.7 mph1.1 kmh 29.65 in1004.1 mb 0.00 in0.0 mm 0.00 in0.0 mm 0.00 in0.0 mm
01:37 PM 84.4°F29.1°C 78.6°F25.9°C 83% Calm Calm 0.7 mph1.1 kmh 29.65 in1004.1 mb 0.00 in0.0 mm 0.00 in0.0 mm 0.00 in0.0 mm
01:43 PM 84.2°F29.0°C 78.1°F25.6°C 82% Calm Calm 1.1 mph1.8 kmh 29.65 in1004.1 mb 0.00 in0.0 mm 0.00 in0.0 mm 0.00 in0.0 mm
01:48 PM 84.0°F28.9°C 77.9°F25.5°C 82% Calm Calm 1.1 mph1.8 kmh 29.65 in1004.1 mb 0.00 in0.0 mm 0.00 in0.0 mm 0.00 in0.0 mm
01:52 PM 84.0°F28.9°C 78.3°F25.7°C 83% Calm Calm 0.7 mph1.1 kmh 29.65 in1004.1 mb 0.00 in0.0 mm 0.00 in0.0 mm 0.00 in0.0 mm
01:58 PM 84.0°F28.9°C 77.9°F25.5°C 82% 0.7 mph WNW1.1 kmh WNW 0.9 mph1.4 kmh 29.65 in1004.1 mb 0.00 in0.0 mm 0.00 in0.0 mm 0.00 in0.0 mm
02:03 PM 84.2°F29.0°C 78.4°F25.8°C 83% 0.7 mph WSW1.1 kmh WSW 0.9 mph1.4 kmh 29.64 in1003.7 mb 0.00 in0.0 mm 0.00 in0.0 mm 0.00 in0.0 mm
02:09 PM 84.4°F29.1°C 78.6°F25.9°C 83% Calm Calm 0.7 mph1.1 kmh 29.64 in1003.7 mb 0.00 in0.0 mm 0.00 in0.0 mm 0.00 in0.0 mm
02:13 PM 84.4°F29.1°C 78.3°F25.7°C 82% 0.2 mph S0.3 kmh S 0.4 mph0.6 kmh 29.64 in1003.7 mb 0.00 in0.0 mm 0.00 in0.0 mm 0.00 in0.0 mm
02:18 PM 84.4°F29.1°C 78.3°F25.7°C 82% Calm Calm 0.4 mph0.6 kmh 29.64 in1003.7 mb 0.00 in0.0 mm 0.00 in0.0 mm 0.00 in0.0 mm
02:24 PM 84.4°F29.1°C 77.9°F25.5°C 81% 0.7 mph SW1.1 kmh SW 1.1 mph1.8 kmh 29.63 in1003.4 mb 0.00 in0.0 mm 0.00 in0.0 mm 0.00 in0.0 mm
02:28 PM 84.7°F29.3°C 78.6°F25.9°C 82% 0.4 mph SW0.6 kmh SW 1.3 mph2.1 kmh 29.63 in1003.4 mb 0.00 in0.0 mm 0.00 in0.0 mm 0.00 in0.0 mm
02:33 PM 84.9°F29.4°C 78.4°F25.8°C 81% Calm Calm 1.3 mph2.1 kmh 29.63 in1003.4 mb 0.00 in0.0 mm 0.00 in0.0 mm 0.00 in0.0 mm
02:39 PM 84.9°F29.4°C 78.4°F25.8°C 81% Calm Calm 0.7 mph1.1 kmh 29.63 in1003.4 mb 0.00 in0.0 mm 0.00 in0.0 mm 0.00 in0.0 mm
02:43 PM 84.9°F29.4°C 78.4°F25.8°C 81% Calm Calm 0.7 mph1.1 kmh 29.63 in1003.4 mb 0.00 in0.0 mm 0.00 in0.0 mm 0.00 in0.0 mm
02:48 PM 85.1°F29.5°C 78.6°F25.9°C 81% 0.9 mph WSW1.4 kmh WSW 0.9 mph1.4 kmh 29.62 in1003.0 mb 0.00 in0.0 mm 0.00 in0.0 mm 0.00 in0.0 mm
02:54 PM 85.1°F29.5°C 78.6°F25.9°C 81% Calm Calm 0.9 mph1.4 kmh 29.62 in1003.0 mb 0.00 in0.0 mm 0.00 in0.0 mm 0.00 in0.0 mm
02:58 PM 84.9°F29.4°C 78.4°F25.8°C 81% Calm Calm 0.9 mph1.4 kmh 29.62 in1003.0 mb 0.00 in0.0 mm 0.00 in0.0 mm 0.00 in0.0 mm
03:05 PM 84.9°F29.4°C 78.4°F25.8°C 81% Calm Calm 0.9 mph1.4 kmh 29.63 in1003.4 mb 0.00 in0.0 mm 0.00 in0.0 mm 0.00 in0.0 mm
03:09 PM 84.7°F29.3°C 78.3°F25.7°C 82% Calm Calm 0.9 mph1.4 kmh 29.63 in1003.4 mb 0.00 in0.0 mm 0.00 in0.0 mm 0.00 in0.0 mm
03:13 PM 84.7°F29.3°C 78.6°F25.9°C 82% Calm Calm 0.9 mph1.4 kmh 29.63 in1003.4 mb 0.00 in0.0 mm 0.00 in0.0 mm 0.00 in0.0 mm
03:20 PM 84.4°F29.1°C 78.6°F25.9°C 83% 0.2 mph S0.3 kmh S 1.3 mph2.1 kmh 29.62 in1003.0 mb 0.00 in0.0 mm 0.00 in0.0 mm 0.00 in0.0 mm
03:24 PM 84.2°F29.0°C 78.4°F25.8°C 83% 0.4 mph S0.6 kmh S 1.3 mph2.1 kmh 29.62 in1003.0 mb 0.00 in0.0 mm 0.00 in0.0 mm 0.00 in0.0 mm
03:28 PM 84.0°F28.9°C 78.6°F25.9°C 84% Calm Calm 0.7 mph1.1 kmh 29.61 in1002.7 mb 0.00 in0.0 mm 0.00 in0.0 mm 0.00 in0.0 mm
03:37 PM 83.8°F28.8°C 78.8°F26.0°C 85% Calm Calm -- 29.60 in1002.4 mb 0.00 in0.0 mm 0.00 in0.0 mm 0.00 in0.0 mm
03:41 PM 83.8°F28.8°C 78.8°F26.0°C 85% Calm Calm -- 29.60 in1002.4 mb 0.00 in0.0 mm 0.00 in0.0 mm 0.00 in0.0 mm
03:46 PM 83.8°F28.8°C 78.8°F26.0°C 85% Calm Calm -- 29.60 in1002.4 mb 0.00 in0.0 mm 0.00 in0.0 mm 0.00 in0.0 mm
03:52 PM 83.5°F28.6°C 78.8°F26.0°C 86% Calm Calm -- 29.62 in1003.0 mb 0.00 in0.0 mm 0.00 in0.0 mm 0.00 in0.0 mm
03:56 PM 83.5°F28.6°C 79.2°F26.2°C 87% Calm Calm -- 29.62 in1003.0 mb 0.00 in0.0 mm 0.00 in0.0 mm 0.00 in0.0 mm
04:01 PM 83.1°F28.4°C 78.8°F26.0°C 87% Calm Calm -- 29.62 in1003.0 mb 0.00 in0.0 mm 0.00 in0.0 mm 0.00 in0.0 mm
04:07 PM 82.8°F28.2°C 79.2°F26.2°C 89% Calm Calm -- 29.62 in1003.0 mb 0.00 in0.0 mm 0.00 in0.0 mm 0.00 in0.0 mm
04:14 PM 82.2°F27.9°C 79.0°F26.1°C 90% Calm Calm -- 29.62 in1003.0 mb 0.00 in0.0 mm 0.00 in0.0 mm 0.00 in0.0 mm
04:18 PM 82.0°F27.8°C 78.8°F26.0°C 90% Calm Calm -- 29.62 in1003.0 mb 0.00 in0.0 mm 0.00 in0.0 mm 0.00 in0.0 mm
04:22 PM 81.7°F27.6°C 78.8°F26.0°C 91% Calm Calm -- 29.62 in1003.0 mb 0.00 in0.0 mm 0.00 in0.0 mm 0.00 in0.0 mm
04:28 PM 81.3°F27.4°C 78.4°F25.8°C 91% Calm Calm -- 29.62 in1003.0 mb 0.00 in0.0 mm 0.00 in0.0 mm 0.00 in0.0 mm
04:33 PM 81.1°F27.3°C 78.5°F25.8°C 92% Calm Calm -- 29.62 in1003.0 mb 0.00 in0.0 mm 0.00 in0.0 mm 0.00 in0.0 mm
04:37 PM 81.1°F27.3°C 78.5°F25.8°C 92% Calm Calm -- 29.62 in1003.0 mb 0.00 in0.0 mm 0.00 in0.0 mm 0.00 in0.0 mm
04:43 PM 81.0°F27.2°C 78.7°F25.9°C 93% Calm Calm -- 29.62 in1003.0 mb 0.00 in0.0 mm 0.00 in0.0 mm 0.00 in0.0 mm
04:48 PM 80.8°F27.1°C 78.5°F25.8°C 93% 0.4 mph ESE0.6 kmh ESE 0.4 mph0.6 kmh 29.62 in1003.0 mb 0.00 in0.0 mm 0.00 in0.0 mm 0.00 in0.0 mm
04:52 PM 80.8°F27.1°C 78.5°F25.8°C 93% Calm Calm 0.4 mph0.6 kmh 29.63 in1003.4 mb 0.00 in0.0 mm 0.00 in0.0 mm 0.00 in0.0 mm
04:58 PM 80.6°F27.0°C 78.3°F25.7°C 93% Calm Calm -- 29.63 in1003.4 mb 0.00 in0.0 mm 0.00 in0.0 mm 0.00 in0.0 mm
05:03 PM 80.4°F26.9°C 78.2°F25.7°C 93% Calm Calm -- 29.64 in1003.7 mb 0.00 in0.0 mm 0.00 in0.0 mm 0.00 in0.0 mm
05:09 PM 80.4°F26.9°C 78.2°F25.7°C 93% Calm Calm -- 29.64 in1003.7 mb 0.00 in0.0 mm 0.00 in0.0 mm 0.00 in0.0 mm
05:14 PM 80.2°F26.8°C 78.0°F25.6°C 93% 0.7 mph SW1.1 kmh SW 0.7 mph1.1 kmh 29.64 in1003.7 mb 0.00 in0.0 mm 0.00 in0.0 mm 0.00 in0.0 mm
05:18 PM 79.9°F26.6°C 77.8°F25.4°C 92% 0.7 mph WSW1.1 kmh WSW 0.7 mph1.1 kmh 29.64 in1003.7 mb 0.00 in0.0 mm 0.00 in0.0 mm 0.00 in0.0 mm
05:24 PM 79.0°F26.1°C 76.2°F24.6°C 91% Calm Calm 1.3 mph2.1 kmh 29.64 in1003.7 mb 0.00 in0.0 mm 0.00 in0.0 mm 0.00 in0.0 mm
05:28 PM 78.6°F25.9°C 75.9°F24.4°C 91% 1.3 mph SW2.1 kmh SW 1.3 mph2.1 kmh 29.64 in1003.7 mb 0.00 in0.0 mm 0.00 in0.0 mm 0.00 in0.0 mm
05:33 PM 78.4°F25.8°C 76.0°F24.4°C 92% Calm Calm 1.3 mph2.1 kmh 29.64 in1003.7 mb 0.00 in0.0 mm 0.00 in0.0 mm 0.00 in0.0 mm
05:39 PM 77.9°F25.5°C 75.5°F24.2°C 92% 1.1 mph W1.8 kmh W 1.1 mph1.8 kmh 29.64 in1003.7 mb 0.00 in0.0 mm 0.00 in0.0 mm 0.00 in0.0 mm
05:43 PM 77.5°F25.3°C 75.3°F24.1°C 91% 0.4 mph W0.6 kmh W 1.1 mph1.8 kmh 29.64 in1003.7 mb 0.00 in0.0 mm 0.00 in0.0 mm 0.00 in0.0 mm
05:48 PM 77.2°F25.1°C 74.7°F23.7°C 92% Calm Calm 1.1 mph1.8 kmh 29.64 in1003.7 mb 0.00 in0.0 mm 0.00 in0.0 mm 0.00 in0.0 mm
05:54 PM 76.6°F24.8°C 74.5°F23.6°C 93% Calm Calm 0.7 mph1.1 kmh 29.64 in1003.7 mb 0.04 in1.0 mm 0.40 in10.2 mm 0.04 in1.0 mm
06:01 PM 76.1°F24.5°C 74.0°F23.3°C 93% Calm Calm 1.1 mph1.8 kmh 29.64 in1003.7 mb 0.12 in3.0 mm 0.09 in2.3 mm 0.09 in2.3 mm
06:05 PM 75.9°F24.4°C 73.8°F23.2°C 93% Calm Calm 1.1 mph1.8 kmh 29.64 in1003.7 mb 0.12 in3.0 mm 0.00 in0.0 mm 0.13 in3.3 mm
06:09 PM 75.7°F24.3°C 73.8°F23.2°C 93% Calm Calm 0.4 mph0.6 kmh 29.64 in1003.7 mb 0.12 in3.0 mm 0.00 in0.0 mm 0.13 in3.3 mm
06:15 PM 75.4°F24.1°C 73.5°F23.1°C 94% 0.4 mph SE0.6 kmh SE 0.9 mph1.4 kmh 29.64 in1003.7 mb 0.12 in3.0 mm 0.00 in0.0 mm 0.13 in3.3 mm
06:20 PM 75.4°F24.1°C 73.5°F23.1°C 94% 0.4 mph SE0.6 kmh SE 0.9 mph1.4 kmh 29.65 in1004.1 mb 0.12 in3.0 mm 0.00 in0.0 mm 0.13 in3.3 mm
06:24 PM 75.2°F24.0°C 73.4°F23.0°C 94% Calm Calm 0.4 mph0.6 kmh 29.65 in1004.1 mb 0.12 in3.0 mm 0.00 in0.0 mm 0.13 in3.3 mm
06:31 PM 75.2°F24.0°C 73.4°F23.0°C 94% Calm Calm -- 29.66 in1004.4 mb 0.12 in3.0 mm 0.00 in0.0 mm 0.13 in3.3 mm
06:35 PM 75.0°F23.9°C 73.2°F22.9°C 94% Calm Calm -- 29.66 in1004.4 mb 0.14 in3.6 mm 0.30 in7.6 mm 0.13 in3.3 mm
06:39 PM 75.0°F23.9°C 73.5°F23.1°C 95% Calm Calm -- 29.66 in1004.4 mb 0.14 in3.6 mm 0.00 in0.0 mm 0.15 in3.8 mm
06:45 PM 75.0°F23.9°C 73.5°F23.1°C 95% Calm Calm -- 29.66 in1004.4 mb 0.20 in5.1 mm 0.60 in15.2 mm 0.21 in5.3 mm
06:50 PM 75.0°F23.9°C 73.5°F23.1°C 95% Calm Calm -- 29.66 in1004.4 mb 0.20 in5.1 mm 0.00 in0.0 mm 0.23 in5.8 mm
06:56 PM 75.0°F23.9°C 73.5°F23.1°C 95% Calm Calm -- 29.67 in1004.7 mb 0.16 in4.1 mm 0.00 in0.0 mm 0.25 in6.4 mm
07:00 PM 74.8°F23.8°C 73.3°F22.9°C 95% Calm Calm -- 29.66 in1004.4 mb 0.14 in3.6 mm 0.00 in0.0 mm 0.25 in6.4 mm
07:05 PM 74.8°F23.8°C 73.3°F22.9°C 95% Calm Calm -- 29.67 in1004.7 mb 0.14 in3.6 mm 0.00 in0.0 mm 0.27 in6.9 mm
07:11 PM 74.8°F23.8°C 73.6°F23.1°C 96% Calm Calm -- 29.67 in1004.7 mb 0.14 in3.6 mm 0.00 in0.0 mm 0.27 in6.9 mm
07:15 PM 74.8°F23.8°C 73.6°F23.1°C 96% Calm Calm -- 29.67 in1004.7 mb 0.14 in3.6 mm 0.00 in0.0 mm 0.27 in6.9 mm
07:22 PM 74.7°F23.7°C 73.4°F23.0°C 96% Calm Calm -- 29.66 in1004.4 mb 0.16 in4.1 mm 0.17 in4.3 mm 0.29 in7.4 mm
07:26 PM 74.5°F23.6°C 73.4°F23.0°C 96% Calm Calm -- 29.67 in1004.7 mb 0.16 in4.1 mm 0.00 in0.0 mm 0.29 in7.4 mm
07:30 PM 74.7°F23.7°C 73.4°F23.0°C 96% Calm Calm -- 29.67 in1004.7 mb 0.16 in4.1 mm 0.00 in0.0 mm 0.29 in7.4 mm
07:37 PM 74.7°F23.7°C 73.4°F23.0°C 96% Calm Calm -- 29.67 in1004.7 mb 0.14 in3.6 mm 0.00 in0.0 mm 0.29 in7.4 mm
07:43 PM 74.5°F23.6°C 73.3°F22.9°C 96% Calm Calm -- 29.67 in1004.7 mb 0.08 in2.0 mm 0.00 in0.0 mm 0.29 in7.4 mm
07:50 PM 74.5°F23.6°C 73.6°F23.1°C 97% Calm Calm -- 29.67 in1004.7 mb 0.06 in1.5 mm 0.00 in0.0 mm 0.29 in7.4 mm
07:54 PM 74.5°F23.6°C 73.6°F23.1°C 97% Calm Calm -- 29.68 in1005.1 mb 0.04 in1.0 mm 0.00 in0.0 mm 0.29 in7.4 mm
08:00 PM 74.5°F23.6°C 73.6°F23.1°C 97% Calm Calm -- 29.68 in1005.1 mb 0.02 in0.5 mm 0.00 in0.0 mm 0.29 in7.4 mm
08:05 PM 74.5°F23.6°C 73.6°F23.1°C 97% Calm Calm -- 29.68 in1005.1 mb 0.02 in0.5 mm 0.00 in0.0 mm 0.29 in7.4 mm
08:09 PM 74.5°F23.6°C 73.6°F23.1°C 97% Calm Calm -- 29.68 in1005.1 mb 0.02 in0.5 mm 0.00 in0.0 mm 0.29 in7.4 mm
08:15 PM 74.7°F23.7°C 73.7°F23.2°C 97% Calm Calm 0.7 mph1.1 kmh 29.69 in1005.4 mb 0.00 in0.0 mm 0.00 in0.0 mm 0.29 in7.4 mm
08:20 PM 74.5°F23.6°C 73.6°F23.1°C 97% Calm Calm 0.7 mph1.1 kmh 29.68 in1005.1 mb 0.00 in0.0 mm 0.00 in0.0 mm 0.29 in7.4 mm
08:24 PM 74.7°F23.7°C 73.7°F23.2°C 97% Calm Calm -- 29.68 in1005.1 mb 0.00 in0.0 mm 0.00 in0.0 mm 0.29 in7.4 mm
08:30 PM 74.8°F23.8°C 73.9°F23.3°C 97% Calm Calm -- 29.69 in1005.4 mb 0.00 in0.0 mm 0.00 in0.0 mm 0.29 in7.4 mm
08:35 PM 74.8°F23.8°C 73.9°F23.3°C 97% Calm Calm -- 29.69 in1005.4 mb 0.00 in0.0 mm 0.00 in0.0 mm 0.29 in7.4 mm
08:41 PM 74.8°F23.8°C 73.9°F23.3°C 97% Calm Calm -- 29.69 in1005.4 mb 0.00 in0.0 mm 0.00 in0.0 mm 0.29 in7.4 mm
08:45 PM 74.8°F23.8°C 73.9°F23.3°C 97% Calm Calm -- 29.69 in1005.4 mb 0.00 in0.0 mm 0.00 in0.0 mm 0.29 in7.4 mm
08:50 PM 74.8°F23.8°C 73.9°F23.3°C 97% Calm Calm -- 29.70 in1005.8 mb 0.00 in0.0 mm 0.00 in0.0 mm 0.29 in7.4 mm
08:56 PM 74.8°F23.8°C 73.9°F23.3°C 97% Calm Calm 0.4 mph0.6 kmh 29.70 in1005.8 mb 0.00 in0.0 mm 0.00 in0.0 mm 0.29 in7.4 mm
09:00 PM 74.8°F23.8°C 73.9°F23.3°C 97% 0.2 mph S0.3 kmh S 0.4 mph0.6 kmh 29.70 in1005.8 mb 0.00 in0.0 mm 0.00 in0.0 mm 0.29 in7.4 mm
09:07 PM 74.8°F23.8°C 73.9°F23.3°C 97% Calm Calm 0.2 mph0.3 kmh 29.70 in1005.8 mb 0.00 in0.0 mm 0.00 in0.0 mm 0.29 in7.4 mm
09:13 PM 74.8°F23.8°C 73.9°F23.3°C 97% Calm Calm -- 29.70 in1005.8 mb 0.00 in0.0 mm 0.00 in0.0 mm 0.29 in7.4 mm
09:18 PM 74.8°F23.8°C 74.2°F23.4°C 98% Calm Calm -- 29.70 in1005.8 mb 0.00 in0.0 mm 0.00 in0.0 mm 0.29 in7.4 mm
09:24 PM 74.5°F23.6°C 74.0°F23.3°C 98% Calm Calm -- 29.70 in1005.8 mb 0.00 in0.0 mm 0.00 in0.0 mm 0.29 in7.4 mm
09:30 PM 74.5°F23.6°C 73.9°F23.3°C 98% Calm Calm -- 29.70 in1005.8 mb 0.00 in0.0 mm 0.00 in0.0 mm 0.29 in7.4 mm
09:35 PM 74.5°F23.6°C 73.9°F23.3°C 98% Calm Calm 0.7 mph1.1 kmh 29.70 in1005.8 mb 0.00 in0.0 mm 0.00 in0.0 mm 0.29 in7.4 mm
09:39 PM 74.5°F23.6°C 73.9°F23.3°C 98% 0.7 mph ESE1.1 kmh ESE 0.7 mph1.1 kmh 29.71 in1006.1 mb 0.00 in0.0 mm 0.00 in0.0 mm 0.29 in7.4 mm
09:45 PM 74.5°F23.6°C 73.9°F23.3°C 98% Calm Calm 0.7 mph1.1 kmh 29.71 in1006.1 mb 0.00 in0.0 mm 0.00 in0.0 mm 0.29 in7.4 mm
09:50 PM 74.5°F23.6°C 73.9°F23.3°C 98% Calm Calm -- 29.71 in1006.1 mb 0.00 in0.0 mm 0.00 in0.0 mm 0.29 in7.4 mm
09:56 PM 74.5°F23.6°C 73.6°F23.1°C 97% Calm Calm -- 29.71 in1006.1 mb 0.00 in0.0 mm 0.00 in0.0 mm 0.29 in7.4 mm
10:00 PM 74.5°F23.6°C 73.6°F23.1°C 97% Calm Calm -- 29.71 in1006.1 mb 0.00 in0.0 mm 0.00 in0.0 mm 0.29 in7.4 mm
10:05 PM 74.5°F23.6°C 73.9°F23.3°C 98% Calm Calm -- 29.71 in1006.1 mb 0.00 in0.0 mm 0.00 in0.0 mm 0.29 in7.4 mm
10:11 PM 74.5°F23.6°C 73.9°F23.3°C 98% Calm Calm -- 29.71 in1006.1 mb 0.00 in0.0 mm 0.00 in0.0 mm 0.29 in7.4 mm
10:15 PM 74.5°F23.6°C 73.9°F23.3°C 98% Calm Calm -- 29.71 in1006.1 mb 0.00 in0.0 mm 0.00 in0.0 mm 0.29 in7.4 mm
10:20 PM 74.5°F23.6°C 73.9°F23.3°C 98% Calm Calm -- 29.71 in1006.1 mb 0.00 in0.0 mm 0.00 in0.0 mm 0.29 in7.4 mm
10:26 PM 74.5°F23.6°C 73.9°F23.3°C 98% Calm Calm -- 29.72 in1006.4 mb 0.00 in0.0 mm 0.00 in0.0 mm 0.29 in7.4 mm
10:30 PM 74.5°F23.6°C 73.9°F23.3°C 98% Calm Calm -- 29.72 in1006.4 mb 0.00 in0.0 mm 0.00 in0.0 mm 0.29 in7.4 mm
10:35 PM 74.5°F23.6°C 73.9°F23.3°C 98% Calm Calm -- 29.72 in1006.4 mb 0.00 in0.0 mm 0.00 in0.0 mm 0.29 in7.4 mm
10:41 PM 74.5°F23.6°C 73.9°F23.3°C 98% Calm Calm -- 29.72 in1006.4 mb 0.00 in0.0 mm 0.00 in0.0 mm 0.29 in7.4 mm
10:45 PM 74.5°F23.6°C 73.9°F23.3°C 98% Calm Calm -- 29.72 in1006.4 mb 0.00 in0.0 mm 0.00 in0.0 mm 0.29 in7.4 mm
10:52 PM 74.5°F23.6°C 73.9°F23.3°C 98% Calm Calm -- 29.72 in1006.4 mb 0.00 in0.0 mm 0.00 in0.0 mm 0.29 in7.4 mm
10:56 PM 74.5°F23.6°C 73.9°F23.3°C 98% Calm Calm -- 29.72 in1006.4 mb 0.00 in0.0 mm 0.00 in0.0 mm 0.29 in7.4 mm
11:00 PM 74.5°F23.6°C 73.9°F23.3°C 98% Calm Calm -- 29.72 in1006.4 mb 0.00 in0.0 mm 0.00 in0.0 mm 0.29 in7.4 mm
11:07 PM 74.5°F23.6°C 73.9°F23.3°C 98% Calm Calm -- 29.72 in1006.4 mb 0.00 in0.0 mm 0.00 in0.0 mm 0.29 in7.4 mm
11:11 PM 74.5°F23.6°C 73.9°F23.3°C 98% Calm Calm -- 29.73 in1006.8 mb 0.00 in0.0 mm 0.00 in0.0 mm 0.29 in7.4 mm
11:17 PM 74.5°F23.6°C 73.9°F23.3°C 98% Calm Calm -- 29.73 in1006.8 mb 0.00 in0.0 mm 0.00 in0.0 mm 0.29 in7.4 mm
11:22 PM 74.5°F23.6°C 73.9°F23.3°C 98% Calm Calm -- 29.72 in1006.4 mb 0.00 in0.0 mm 0.00 in0.0 mm 0.29 in7.4 mm
11:26 PM 74.5°F23.6°C 73.9°F23.3°C 98% Calm Calm -- 29.73 in1006.8 mb 0.00 in0.0 mm 0.00 in0.0 mm 0.29 in7.4 mm
11:32 PM 74.5°F23.6°C 73.9°F23.3°C 98% Calm Calm -- 29.72 in1006.4 mb 0.00 in0.0 mm 0.00 in0.0 mm 0.29 in7.4 mm
11:37 PM 74.5°F23.6°C 73.6°F23.1°C 97% Calm Calm -- 29.72 in1006.4 mb 0.00 in0.0 mm 0.00 in0.0 mm 0.29 in7.4 mm
11:41 PM 74.5°F23.6°C 73.6°F23.1°C 97% Calm Calm -- 29.72 in1006.4 mb 0.00 in0.0 mm 0.00 in0.0 mm 0.29 in7.4 mm
11:47 PM 74.5°F23.6°C 73.9°F23.3°C 98% Calm Calm -- 29.72 in1006.4 mb 0.00 in0.0 mm 0.00 in0.0 mm 0.29 in7.4 mm
11:52 PM 74.5°F23.6°C 73.6°F23.1°C 97% Calm Calm -- 29.72 in1006.4 mb 0.00 in0.0 mm 0.00 in0.0 mm 0.29 in7.4 mm
11:56 PM 74.5°F23.6°C 73.6°F23.1°C 97% Calm Calm -- 29.72 in1006.4 mb 0.00 in0.0 mm 0.00 in0.0 mm 0.29 in7.4 mm